Time;durP1;ratioP1;P1;durP2;ratioP2;P2;SDS_P1;SDS_P2;PMS_P1;PMS_P2;Temp;Humidity;BMP_temperature;BMP_pressure;BME280_temperature;BME280_humidity;BME280_pressure;Samples;Min_cycle;Max_cycle;Signal;HPM_P1;HPM_P2
2023/04/08 00:02:16;;;;;;;17.48;12.15;;;4.90;99.90;;;;;;5002218;28;20563;-82
2023/04/08 00:04:42;;;;;;;17.83;11.88;;;4.90;99.90;;;;;;5034524;28;20397;-82
2023/04/08 00:07:08;;;;;;;16.73;11.48;;;4.90;99.90;;;;;;5035103;28;20045;-82
2023/04/08 00:09:34;;;;;;;18.45;11.90;;;4.80;99.90;;;;;;5034713;28;20409;-83
2023/04/08 00:12:00;;;;;;;16.58;12.68;;;4.80;99.90;;;;;;5018406;28;20037;-82
2023/04/08 00:14:25;;;;;;;16.38;11.90;;;4.80;99.90;;;;;;5017932;28;20045;-82
2023/04/08 00:16:51;;;;;;;17.63;12.55;;;4.80;99.90;;;;;;5018336;28;20128;-82
2023/04/08 00:19:17;;;;;;;17.50;12.80;;;4.30;99.90;;;;;;5033990;28;20096;-82
2023/04/08 00:21:43;;;;;;;17.83;12.50;;;4.80;99.90;;;;;;5017892;28;20106;-82
2023/04/08 00:24:09;;;;;;;16.80;12.52;;;4.70;99.90;;;;;;5017649;28;20088;-82
2023/04/08 00:26:36;;;;;;;17.52;12.65;;;4.70;99.90;;;;;;5017620;28;20054;-83
2023/04/08 00:29:02;;;;;;;18.45;13.15;;;4.60;99.90;;;;;;5034697;28;20060;-83
2023/04/08 00:31:28;;;;;;;17.75;13.18;;;4.60;99.90;;;;;;5018374;28;20066;-83
2023/04/08 00:33:54;;;;;;;18.83;12.25;;;4.60;99.90;;;;;;5002415;28;20183;-83
2023/04/08 00:36:20;;;;;;;19.17;13.32;;;4.60;99.90;;;;;;5001735;28;20048;-84
2023/04/08 00:38:45;;;;;;;18.15;12.82;;;4.60;99.90;;;;;;5034282;28;20045;-84
2023/04/08 00:41:12;;;;;;;17.95;12.75;;;4.50;99.90;;;;;;5017993;28;20091;-84
2023/04/08 00:43:37;;;;;;;18.38;13.00;;;4.60;99.90;;;;;;5017774;28;20049;-84
2023/04/08 00:46:04;;;;;;;18.10;12.45;;;4.50;99.90;;;;;;5001343;28;20076;-84
2023/04/08 00:48:30;;;;;;;20.02;13.70;;;4.50;99.90;;;;;;5034063;28;20042;-83
2023/04/08 00:50:57;;;;;;;18.17;12.90;;;4.60;99.90;;;;;;5033782;28;20516;-83
2023/04/08 00:53:23;;;;;;;16.92;12.63;;;4.50;99.90;;;;;;5016027;28;20041;-83
2023/04/08 00:55:49;;;;;;;17.15;13.05;;;4.50;99.90;;;;;;4997900;28;20045;-83
2023/04/08 00:58:16;;;;;;;17.00;12.90;;;4.50;99.90;;;;;;4997462;28;20097;-83
2023/04/08 01:00:51;;;;;;;16.58;12.98;;;4.40;99.90;;;;;;4996810;28;20061;-84
2023/04/08 01:03:33;;;;;;;18.08;13.25;;;4.40;99.90;;;;;;5013889;28;20402;-83
2023/04/08 01:06:08;;;;;;;17.15;12.50;;;4.40;99.90;;;;;;5013663;28;20103;-83
2023/04/08 01:08:38;;;;;;;16.60;11.88;;;4.30;99.90;;;;;;5013838;28;20493;-83
2023/04/08 01:11:09;;;;;;;16.60;12.05;;;4.10;99.90;;;;;;5014002;28;20061;-83
2023/04/08 01:13:39;;;;;;;16.13;11.65;;;4.30;99.90;;;;;;4997565;28;20129;-83
2023/04/08 01:16:09;;;;;;;17.50;12.27;;;4.30;99.90;;;;;;4997951;28;20096;-83
2023/04/08 01:18:37;;;;;;;17.23;12.57;;;4.30;99.90;;;;;;5013612;28;20056;-83
2023/04/08 01:21:05;;;;;;;15.85;11.95;;;4.30;99.90;;;;;;4997127;28;20050;-83
2023/04/08 01:23:45;;;;;;;18.02;12.65;;;4.30;99.90;;;;;;5013306;28;20057;-82
2023/04/08 01:26:20;;;;;;;18.30;12.10;;;4.20;99.90;;;;;;4996991;28;20080;-85
2023/04/08 01:28:48;;;;;;;17.58;12.88;;;4.20;99.90;;;;;;4997065;28;20050;-83
2023/04/08 01:31:14;;;;;;;17.38;12.77;;;4.20;99.90;;;;;;5014332;28;20053;-84
2023/04/08 01:33:41;;;;;;;16.80;12.30;;;4.20;99.90;;;;;;4997929;28;20069;-83
2023/04/08 01:36:09;;;;;;;16.60;12.73;;;4.10;99.90;;;;;;5013543;28;20133;-83
2023/04/08 01:38:36;;;;;;;19.23;13.10;;;4.10;99.90;;;;;;4996941;28;20417;-84
2023/04/08 01:41:04;;;;;;;18.00;12.45;;;4.00;99.90;;;;;;5013956;28;20454;-83
2023/04/08 01:43:32;;;;;;;17.45;12.50;;;4.00;99.90;;;;;;5014222;28;20417;-83
2023/04/08 01:46:00;;;;;;;20.40;13.90;;;3.90;99.90;;;;;;4997486;28;20054;-83
2023/04/08 01:48:27;;;;;;;19.23;13.82;;;3.90;99.90;;;;;;5013938;28;20060;-83
2023/04/08 01:50:54;;;;;;;19.70;14.43;;;3.90;99.90;;;;;;4997692;28;20389;-83
2023/04/08 01:53:20;;;;;;;18.42;13.80;;;3.90;99.90;;;;;;5013910;28;20539;-83
2023/04/08 01:55:50;;;;;;;20.20;13.63;;;3.80;99.90;;;;;;5013375;28;20128;-83
2023/04/08 01:58:20;;;;;;;18.38;13.75;;;3.80;99.90;;;;;;5012814;28;20141;-83
2023/04/08 02:00:46;;;;;;;17.85;13.98;;;3.80;99.90;;;;;;5013739;28;20046;-82
2023/04/08 02:03:13;;;;;;;20.08;14.52;;;3.80;99.90;;;;;;4981931;28;20049;-85
2023/04/08 02:05:39;;;;;;;21.00;14.68;;;3.70;99.90;;;;;;5013808;28;20064;-82
2023/04/08 02:08:08;;;;;;;22.30;15.07;;;3.60;99.90;;;;;;4997566;28;20050;-83
2023/04/08 02:10:34;;;;;;;20.05;15.00;;;3.60;99.90;;;;;;4980784;28;20504;-83
2023/04/08 02:13:01;;;;;;;19.70;14.77;;;3.60;99.90;;;;;;4997568;28;20128;-83
2023/04/08 02:15:31;;;;;;;20.30;15.20;;;3.60;99.90;;;;;;4980980;28;20438;-83
2023/04/08 02:18:06;;;;;;;22.45;15.90;;;3.60;99.90;;;;;;4996586;28;20073;-83
2023/04/08 02:20:46;;;;;;;22.48;17.08;;;3.50;99.90;;;;;;4998176;28;20042;-83
2023/04/08 02:23:23;;;;;;;21.33;16.15;;;3.50;99.90;;;;;;5000397;28;20053;-83
2023/04/08 02:25:52;;;;;;;23.27;16.60;;;3.50;99.90;;;;;;5016703;28;20405;-83
2023/04/08 02:28:19;;;;;;;24.70;17.20;;;3.40;99.90;;;;;;4999973;28;20058;-83
2023/04/08 02:30:49;;;;;;;24.35;16.77;;;3.40;99.90;;;;;;5000677;28;20050;-83
2023/04/08 02:33:20;;;;;;;21.90;16.70;;;3.40;99.90;;;;;;5000537;28;20045;-83
2023/04/08 02:35:49;;;;;;;25.45;17.92;;;3.30;99.90;;;;;;5016027;28;20121;-83
2023/04/08 02:38:15;;;;;;;22.83;16.40;;;3.30;99.90;;;;;;5016493;28;20042;-83
2023/04/08 02:40:41;;;;;;;23.63;16.55;;;3.20;99.90;;;;;;5000160;28;20064;-83
2023/04/08 02:43:07;;;;;;;24.50;17.35;;;3.20;99.90;;;;;;5000181;28;20132;-83
2023/04/08 02:45:52;;;;;;;24.67;17.27;;;3.20;99.90;;;;;;4999568;28;20516;-83
2023/04/08 02:48:17;;;;;;;21.73;17.02;;;3.20;99.90;;;;;;5000159;28;20045;-83
2023/04/08 02:50:43;;;;;;;22.95;17.20;;;3.20;99.90;;;;;;5015067;28;20056;-85
2023/04/08 02:53:09;;;;;;;24.58;17.38;;;3.20;99.90;;;;;;5014599;28;20128;-83
2023/04/08 02:55:35;;;;;;;25.15;18.08;;;3.10;99.90;;;;;;5017824;28;20069;-83
2023/04/08 02:58:00;;;;;;;24.90;17.85;;;3.10;99.90;;;;;;5034252;28;20045;-83
2023/04/08 03:00:26;;;;;;;27.83;20.75;;;3.10;99.90;;;;;;5019184;28;20045;-82
2023/04/08 03:02:55;;;;;;;29.63;20.10;;;2.90;99.90;;;;;;5036105;28;20085;-83
2023/04/08 03:05:20;;;;;;;25.25;17.70;;;3.00;99.90;;;;;;5019691;28;20577;-82
2023/04/08 03:07:46;;;;;;;26.58;20.38;;;3.10;99.90;;;;;;5036275;28;20072;-82
2023/04/08 03:10:12;;;;;;;27.23;19.25;;;3.10;99.90;;;;;;5035631;28;20053;-82
2023/04/08 03:12:38;;;;;;;27.10;19.35;;;3.00;99.90;;;;;;5019293;28;20049;-82
2023/04/08 03:15:05;;;;;;;29.38;20.83;;;3.00;99.90;;;;;;5035082;28;20107;-83
2023/04/08 03:17:33;;;;;;;30.75;21.90;;;3.00;99.90;;;;;;5035603;28;20459;-83
2023/04/08 03:19:59;;;;;;;30.00;20.58;;;3.00;99.90;;;;;;5035896;28;20103;-83
2023/04/08 03:22:25;;;;;;;34.20;23.73;;;3.00;99.90;;;;;;5019125;28;20045;-84
2023/04/08 03:24:51;;;;;;;35.85;24.73;;;3.10;99.90;;;;;;5035201;28;20041;-84
2023/04/08 03:27:17;;;;;;;37.05;24.20;;;2.90;99.90;;;;;;5035580;28;20050;-86
2023/04/08 03:29:44;;;;;;;35.55;24.00;;;2.90;99.90;;;;;;5019423;28;20371;-84
2023/04/08 03:32:10;;;;;;;37.03;25.02;;;2.90;99.90;;;;;;5018862;28;20054;-83
2023/04/08 03:34:36;;;;;;;39.00;26.10;;;3.00;99.90;;;;;;5035149;28;20068;-83
2023/04/08 03:37:01;;;;;;;34.92;24.60;;;2.90;99.90;;;;;;5002929;28;20405;-83
2023/04/08 03:39:27;;;;;;;38.63;26.67;;;2.90;99.90;;;;;;5019104;28;20081;-83
2023/04/08 03:41:53;;;;;;;36.92;26.13;;;2.90;99.90;;;;;;5018562;28;20057;-83
2023/04/08 03:44:19;;;;;;;39.88;26.77;;;2.90;99.90;;;;;;5018631;28;20099;-82
2023/04/08 03:46:45;;;;;;;39.60;26.75;;;2.90;99.90;;;;;;5034924;28;20045;-84
2023/04/08 03:49:11;;;;;;;40.78;27.65;;;2.90;99.90;;;;;;5018163;28;20049;-83
2023/04/08 03:51:36;;;;;;;37.47;24.75;;;2.90;99.90;;;;;;5018817;28;20057;-83
2023/04/08 03:54:02;;;;;;;33.92;23.88;;;2.90;99.90;;;;;;5034469;28;20041;-83
2023/04/08 03:56:28;;;;;;;33.17;24.33;;;2.90;99.90;;;;;;5002483;28;20057;-83
2023/04/08 03:58:54;;;;;;;32.05;23.70;;;3.00;99.90;;;;;;5018454;28;20115;-83
2023/04/08 04:01:20;;;;;;;32.05;23.73;;;3.10;99.90;;;;;;5017670;28;20108;-82
2023/04/08 04:03:46;;;;;;;34.75;24.80;;;3.00;99.90;;;;;;5035172;28;20543;-83
2023/04/08 04:06:11;;;;;;;38.28;25.42;;;3.10;99.90;;;;;;5035026;28;20072;-83
2023/04/08 04:08:37;;;;;;;32.78;24.10;;;3.10;99.90;;;;;;5034914;28;20362;-83
2023/04/08 04:11:03;;;;;;;31.38;22.95;;;3.10;99.90;;;;;;5018579;28;20373;-83
2023/04/08 04:13:29;;;;;;;33.90;23.25;;;3.20;99.90;;;;;;5034448;28;20061;-83
2023/04/08 04:15:57;;;;;;;35.10;25.65;;;3.20;99.90;;;;;;5033942;28;20038;-83
2023/04/08 04:18:23;;;;;;;33.50;25.02;;;3.20;99.90;;;;;;5002663;28;20049;-83
2023/04/08 04:20:49;;;;;;;33.88;24.58;;;3.20;99.90;;;;;;5018383;28;20064;-83
2023/04/08 04:23:19;;;;;;;34.67;24.23;;;3.20;99.90;;;;;;5034533;28;20124;-83
2023/04/08 04:25:48;;;;;;;34.40;24.88;;;3.20;99.90;;;;;;5018256;28;20105;-83
2023/04/08 04:28:13;;;;;;;35.22;24.98;;;3.20;99.90;;;;;;5018575;28;20097;-83
2023/04/08 04:30:39;;;;;;;34.70;24.65;;;3.20;99.90;;;;;;5018233;28;20046;-82
2023/04/08 04:33:10;;;;;;;36.85;25.38;;;3.20;99.90;;;;;;5034170;28;20088;-82
2023/04/08 04:35:38;;;;;;;35.70;25.10;;;3.30;99.90;;;;;;5033751;28;20082;-83
2023/04/08 04:38:09;;;;;;;39.20;27.65;;;3.20;99.90;;;;;;5033728;28;20488;-83
2023/04/08 04:40:38;;;;;;;37.58;26.92;;;3.20;99.90;;;;;;5034208;28;20473;-83
2023/04/08 04:43:04;;;;;;;37.95;26.38;;;3.20;99.90;;;;;;5017463;28;20060;-84
2023/04/08 04:45:30;;;;;;;37.28;26.65;;;3.20;99.90;;;;;;5033483;28;20048;-83
2023/04/08 04:47:56;;;;;;;37.47;26.42;;;3.30;99.90;;;;;;5018068;28;20053;-82
2023/04/08 04:50:22;;;;;;;35.53;25.30;;;3.30;99.90;;;;;;5017791;28;20061;-82
2023/04/08 04:52:48;;;;;;;37.50;26.00;;;3.40;99.90;;;;;;5033498;28;20070;-83
2023/04/08 04:55:14;;;;;;;38.88;26.33;;;3.40;99.90;;;;;;5033557;28;20119;-83
2023/04/08 04:57:41;;;;;;;36.55;26.10;;;3.40;99.90;;;;;;5017207;28;20120;-83
2023/04/08 05:00:07;;;;;;;36.92;26.42;;;3.50;99.90;;;;;;5032702;28;20146;-83
2023/04/08 05:02:33;;;;;;;38.00;26.55;;;3.50;99.90;;;;;;5017423;28;20041;-83
2023/04/08 05:04:59;;;;;;;39.10;26.10;;;3.50;99.90;;;;;;5033505;28;20482;-83
2023/04/08 05:07:25;;;;;;;35.67;26.35;;;3.50;99.90;;;;;;5033284;28;20397;-82
2023/04/08 05:09:50;;;;;;;39.13;27.15;;;3.50;99.90;;;;;;5033307;28;20568;-82
2023/04/08 05:12:16;;;;;;;40.63;27.23;;;3.60;99.90;;;;;;5017955;28;20128;-83
2023/04/08 05:14:42;;;;;;;37.72;26.77;;;3.60;99.90;;;;;;5016747;28;20057;-81
2023/04/08 05:17:08;;;;;;;39.10;27.38;;;3.70;99.90;;;;;;5000068;28;20067;-82
2023/04/08 05:19:34;;;;;;;39.70;27.45;;;3.70;99.90;;;;;;5032653;28;20091;-83
2023/04/08 05:21:59;;;;;;;36.63;25.38;;;3.70;99.90;;;;;;5016969;28;20128;-82
2023/04/08 05:24:25;;;;;;;39.67;28.05;;;3.70;99.90;;;;;;5033408;28;20088;-82
2023/04/08 05:26:52;;;;;;;36.05;26.45;;;3.70;99.90;;;;;;5032791;28;20153;-83
2023/04/08 05:29:18;;;;;;;43.58;27.83;;;3.70;99.90;;;;;;5016022;28;20408;-82
2023/04/08 05:31:44;;;;;;;40.45;27.55;;;3.70;99.90;;;;;;5032902;28;20094;-82
2023/04/08 05:34:10;;;;;;;41.92;26.95;;;3.70;99.90;;;;;;5033285;28;20064;-82
2023/04/08 05:36:36;;;;;;;39.65;26.70;;;3.70;99.90;;;;;;5016560;28;20563;-82
2023/04/08 05:39:02;;;;;;;39.72;27.38;;;3.70;99.90;;;;;;5033261;28;20049;-82
2023/04/08 05:41:28;;;;;;;44.53;28.30;;;3.80;99.90;;;;;;5032708;28;20140;-82
2023/04/08 05:43:53;;;;;;;38.88;27.90;;;3.80;99.90;;;;;;5033661;28;20107;-82
2023/04/08 05:46:19;;;;;;;44.75;29.25;;;3.80;99.90;;;;;;5016329;28;20081;-83
2023/04/08 05:48:48;;;;;;;41.75;27.13;;;3.80;99.90;;;;;;5032487;28;20540;-82
2023/04/08 05:51:14;;;;;;;39.70;27.05;;;3.90;99.90;;;;;;5032895;28;20049;-82
2023/04/08 05:53:41;;;;;;;40.33;26.98;;;4.00;99.90;;;;;;5032599;28;20099;-82
2023/04/08 05:56:07;;;;;;;39.47;26.90;;;4.10;99.90;;;;;;5019275;28;20042;-82
2023/04/08 05:58:32;;;;;;;39.33;27.60;;;4.10;99.90;;;;;;5019711;28;20374;-81
2023/04/08 06:00:58;;;;;;;42.95;28.55;;;4.20;99.90;;;;;;5020043;28;20061;-82
2023/04/08 06:03:24;;;;;;;43.80;30.25;;;4.30;99.90;;;;;;5004075;28;20049;-81
2023/04/08 06:05:50;;;;;;;40.50;29.27;;;4.40;99.90;;;;;;5020192;28;20041;-82
2023/04/08 06:08:16;;;;;;;41.22;28.40;;;4.50;99.90;;;;;;5020362;28;20128;-81
2023/04/08 06:10:49;;;;;;;45.80;31.10;;;5.00;99.90;;;;;;5036474;28;20084;-82
2023/04/08 06:13:15;;;;;;;41.70;30.00;;;5.40;99.90;;;;;;5036405;28;20050;-82
2023/04/08 06:15:41;;;;;;;40.88;29.45;;;5.50;99.90;;;;;;5019304;28;20436;-82
2023/04/08 06:18:07;;;;;;;41.38;29.90;;;5.80;99.90;;;;;;5036528;28;20064;-82
2023/04/08 06:20:34;;;;;;;41.05;28.38;;;5.80;99.90;;;;;;5020120;28;20088;-82
2023/04/08 06:23:00;;;;;;;39.40;28.55;;;5.60;99.90;;;;;;5035978;28;20041;-82
2023/04/08 06:25:26;;;;;;;39.22;27.25;;;5.60;99.90;;;;;;4986782;28;20056;-82
2023/04/08 06:27:54;;;;;;;41.83;28.45;;;5.70;99.90;;;;;;5036019;28;20050;-81
2023/04/08 06:30:20;;;;;;;33.35;25.10;;;6.10;99.90;;;;;;5036044;28;20041;-82
2023/04/08 06:32:46;;;;;;;32.53;25.10;;;6.20;99.90;;;;;;5019334;28;20505;-81
2023/04/08 06:35:13;;;;;;;30.00;23.40;;;6.40;99.90;;;;;;5002879;28;20385;-81
2023/04/08 06:37:39;;;;;;;29.63;22.90;;;6.90;99.90;;;;;;5035920;28;20046;-81
2023/04/08 06:40:05;;;;;;;30.85;23.02;;;6.90;99.90;;;;;;4987063;28;20072;-81
2023/04/08 06:42:31;;;;;;;29.08;22.00;;;7.40;99.90;;;;;;5035836;28;20404;-81
2023/04/08 06:44:59;;;;;;;30.33;22.90;;;7.50;99.90;;;;;;5019401;28;20136;-81
2023/04/08 06:47:25;;;;;;;27.45;20.95;;;7.50;99.90;;;;;;5002771;28;20053;-81
2023/04/08 06:49:51;;;;;;;26.67;20.50;;;7.30;99.90;;;;;;5035783;28;20057;-81
2023/04/08 06:52:20;;;;;;;27.10;21.05;;;7.50;99.90;;;;;;5035644;28;20053;-81
2023/04/08 06:54:46;;;;;;;26.08;20.45;;;7.80;99.90;;;;;;5019236;28;20478;-81
2023/04/08 06:57:11;;;;;;;24.90;19.88;;;7.90;99.90;;;;;;5034974;28;20045;-81
2023/04/08 06:59:38;;;;;;;24.67;19.48;;;7.80;99.90;;;;;;5017991;28;20050;-82
2023/04/08 07:02:03;;;;;;;26.45;21.35;;;7.50;99.90;;;;;;5035235;28;20095;-82
2023/04/08 07:04:29;;;;;;;25.77;20.70;;;7.10;99.90;;;;;;5019027;28;20054;-82
2023/04/08 07:06:58;;;;;;;27.75;19.75;;;7.10;99.90;;;;;;5034416;28;20191;-81
2023/04/08 07:09:23;;;;;;;27.48;20.85;;;7.20;99.90;;;;;;5003028;28;20042;-82
2023/04/08 07:11:49;;;;;;;26.17;20.63;;;7.50;99.90;;;;;;5018595;28;20060;-83
2023/04/08 07:14:15;;;;;;;25.30;19.20;;;7.70;99.90;;;;;;5035299;28;20477;-82
2023/04/08 07:16:40;;;;;;;26.52;20.60;;;8.10;99.90;;;;;;5001639;28;20049;-81
2023/04/08 07:19:06;;;;;;;24.90;19.33;;;7.90;99.90;;;;;;5034978;28;20067;-82
2023/04/08 07:21:32;;;;;;;23.90;19.05;;;7.80;99.90;;;;;;5035031;28;20049;-81
2023/04/08 07:23:58;;;;;;;24.33;19.10;;;8.10;99.90;;;;;;5017764;28;20456;-81
2023/04/08 07:26:24;;;;;;;25.17;20.70;;;8.60;99.90;;;;;;5018121;28;20136;-81
2023/04/08 07:28:50;;;;;;;24.85;19.45;;;9.10;99.90;;;;;;5034842;28;20505;-81
2023/04/08 07:31:17;;;;;;;24.98;20.90;;;9.50;99.90;;;;;;5018692;28;20103;-82
2023/04/08 07:33:44;;;;;;;22.27;17.52;;;9.40;99.90;;;;;;5018351;28;20059;-81
2023/04/08 07:36:11;;;;;;;23.52;19.48;;;9.50;99.90;;;;;;5002311;28;20573;-81
2023/04/08 07:38:40;;;;;;;22.27;18.25;;;9.70;99.90;;;;;;5035041;28;20084;-81
2023/04/08 07:41:06;;;;;;;22.58;17.88;;;9.60;99.90;;;;;;5018164;28;20048;-81
2023/04/08 07:43:36;;;;;;;23.77;19.45;;;9.60;99.90;;;;;;5018314;28;20140;-82
2023/04/08 07:46:05;;;;;;;25.40;20.25;;;9.40;99.90;;;;;;5034775;28;20439;-82
2023/04/08 07:48:34;;;;;;;21.98;17.52;;;9.20;99.90;;;;;;5035662;28;20049;-82
2023/04/08 07:51:05;;;;;;;24.33;19.75;;;8.90;99.90;;;;;;5001194;28;20049;-81
2023/04/08 07:53:32;;;;;;;24.48;19.55;;;8.80;99.90;;;;;;5017430;28;20060;-82
2023/04/08 07:55:58;;;;;;;22.08;17.98;;;8.90;99.90;;;;;;5018148;28;20045;-81
2023/04/08 07:58:24;;;;;;;22.45;17.77;;;9.10;99.90;;;;;;5034129;28;20087;-82
2023/04/08 08:00:50;;;;;;;22.75;17.70;;;9.40;99.90;;;;;;5033726;28;20061;-82
2023/04/08 08:03:16;;;;;;;21.55;17.75;;;9.30;99.90;;;;;;5017876;28;20064;-82
2023/04/08 08:05:42;;;;;;;22.42;17.85;;;9.30;99.90;;;;;;5034295;28;20061;-82
2023/04/08 08:08:10;;;;;;;22.42;17.77;;;9.00;99.90;;;;;;5034554;28;20053;-82
2023/04/08 08:10:37;;;;;;;23.42;18.70;;;8.80;99.90;;;;;;5017599;28;20522;-83
2023/04/08 08:13:05;;;;;;;59.33;33.30;;;8.40;99.90;;;;;;5033751;28;20045;-82
2023/04/08 08:15:31;;;;;;;56.95;37.97;;;8.40;99.90;;;;;;5017674;28;20049;-81
2023/04/08 08:17:56;;;;;;;29.15;23.33;;;8.50;99.90;;;;;;4984316;28;20065;-82
2023/04/08 08:20:22;;;;;;;19.75;15.73;;;8.60;99.90;;;;;;5016642;28;20172;-83
2023/04/08 08:22:48;;;;;;;22.35;17.83;;;8.50;99.90;;;;;;5017138;28;20053;-82
2023/04/08 08:25:14;;;;;;;19.55;15.32;;;8.30;99.90;;;;;;5017318;28;20059;-82
2023/04/08 08:27:41;;;;;;;18.95;13.93;;;8.20;99.90;;;;;;5017223;28;20045;-82
2023/04/08 08:30:08;;;;;;;20.50;17.73;;;8.10;99.90;;;;;;5034734;28;20405;-82
2023/04/08 08:32:34;;;;;;;22.70;18.85;;;8.20;99.90;;;;;;5033772;28;20049;-82
2023/04/08 08:35:00;;;;;;;22.48;17.25;;;8.10;99.90;;;;;;5033780;28;20057;-83
2023/04/08 08:37:26;;;;;;;19.95;16.63;;;8.20;99.90;;;;;;5033692;28;20075;-82
2023/04/08 08:39:52;;;;;;;21.05;17.40;;;8.20;99.90;;;;;;5001023;28;20392;-85
2023/04/08 08:42:20;;;;;;;21.60;17.67;;;8.30;99.90;;;;;;5033566;28;20060;-83
2023/04/08 08:44:46;;;;;;;20.48;16.25;;;8.00;99.90;;;;;;5033142;28;20050;-83
2023/04/08 08:47:12;;;;;;;20.80;17.75;;;8.10;99.90;;;;;;5033515;28;20052;-82
2023/04/08 08:49:37;;;;;;;20.63;17.23;;;8.10;99.90;;;;;;5033142;28;20049;-84
2023/04/08 08:52:03;;;;;;;20.13;16.77;;;8.20;99.90;;;;;;5017639;28;20041;-83
2023/04/08 08:54:30;;;;;;;20.27;17.35;;;8.30;99.90;;;;;;5017369;28;20099;-84
2023/04/08 08:56:56;;;;;;;22.42;18.35;;;8.50;99.90;;;;;;5017004;28;20089;-84
2023/04/08 08:59:22;;;;;;;20.35;18.15;;;8.50;99.90;;;;;;5016546;28;20072;-83
2023/04/08 09:01:48;;;;;;;21.02;16.30;;;8.60;99.90;;;;;;5017362;28;20061;-84
2023/04/08 09:04:18;;;;;;;20.60;17.40;;;8.60;99.90;;;;;;5017614;28;20072;-83
2023/04/08 09:06:46;;;;;;;21.33;17.58;;;8.40;99.90;;;;;;5033649;28;20049;-84
2023/04/08 09:09:12;;;;;;;22.08;17.73;;;8.30;99.90;;;;;;5017038;28;20046;-84
2023/04/08 09:11:43;;;;;;;21.67;18.67;;;8.00;99.90;;;;;;5032874;28;20516;-84
2023/04/08 09:14:22;;;;;;;25.42;20.50;;;7.90;99.90;;;;;;5032668;28;20042;-83
2023/04/08 09:16:49;;;;;;;26.73;23.10;;;7.90;99.90;;;;;;5032918;28;20102;-83
2023/04/08 09:19:15;;;;;;;26.25;21.17;;;7.80;99.90;;;;;;5033220;28;20111;-83
2023/04/08 09:21:42;;;;;;;28.50;22.85;;;7.80;99.90;;;;;;5028929;28;20461;-84
2023/04/08 09:24:30;;;;;;;32.28;28.83;;;7.60;99.90;;;;;;4996917;28;20478;-83
2023/04/08 09:26:57;;;;;;;27.88;23.17;;;7.80;99.90;;;;;;4997098;28;20060;-84
2023/04/08 09:29:24;;;;;;;24.75;21.88;;;7.90;99.90;;;;;;4997556;28;20129;-84
2023/04/08 09:32:00;;;;;;;27.08;22.67;;;8.00;99.90;;;;;;5001342;28;20058;-84
2023/04/08 09:34:28;;;;;;;29.17;24.30;;;8.10;99.90;;;;;;5000838;28;20050;-85
2023/04/08 09:36:55;;;;;;;48.67;40.92;;;8.10;99.90;;;;;;5000774;28;20367;-85
2023/04/08 09:39:23;;;;;;;30.17;26.92;;;8.10;99.90;;;;;;5001281;28;20053;-84
2023/04/08 09:41:50;;;;;;;29.73;25.35;;;8.10;99.90;;;;;;5001150;28;20060;-84
2023/04/08 09:44:19;;;;;;;25.75;21.95;;;8.10;99.90;;;;;;5017001;28;20421;-84
2023/04/08 09:46:48;;;;;;;28.92;23.65;;;8.10;99.90;;;;;;4984988;28;20397;-85
2023/04/08 09:49:37;;;;;;;25.98;22.38;;;8.10;99.90;;;;;;5016811;28;20371;-84
2023/04/08 09:52:29;;;;;;;27.20;22.52;;;8.10;99.90;;;;;;5017820;28;20050;-85
2023/04/08 09:55:03;;;;;;;26.73;22.35;;;8.00;99.90;;;;;;5000313;28;20037;-86
2023/04/08 09:58:07;;;;;;;29.27;23.52;;;8.00;99.90;;;;;;5016887;28;20042;-85
2023/04/08 10:00:45;;;;;;;27.58;23.35;;;8.10;99.90;;;;;;5016688;28;20054;-84
2023/04/08 10:03:28;;;;;;;27.15;21.65;;;8.20;99.90;;;;;;5000508;28;20170;-85
2023/04/08 10:05:55;;;;;;;27.02;22.55;;;8.30;99.90;;;;;;5016487;28;20046;-84
2023/04/08 10:08:23;;;;;;;24.50;20.90;;;8.40;99.90;;;;;;5016913;28;20057;-85
2023/04/08 10:10:50;;;;;;;25.23;20.45;;;8.40;99.90;;;;;;5016653;28;20402;-84
2023/04/08 10:13:16;;;;;;;25.73;21.13;;;8.50;99.90;;;;;;5000277;28;20053;-85
2023/04/08 10:15:46;;;;;;;25.85;20.02;;;8.50;99.90;;;;;;5016484;28;20628;-84
2023/04/08 10:18:28;;;;;;;24.52;20.85;;;8.50;99.90;;;;;;5017135;28;20053;-84
2023/04/08 10:20:54;;;;;;;24.42;20.02;;;8.40;99.90;;;;;;5016514;28;20061;-84
2023/04/08 10:23:58;;;;;;;24.20;19.88;;;8.50;99.90;;;;;;5001048;28;20057;-83
2023/04/08 10:26:34;;;;;;;26.05;20.13;;;8.60;99.90;;;;;;5000485;28;20054;-85
2023/04/08 10:29:20;;;;;;;24.65;19.23;;;8.50;99.90;;;;;;5000311;28;20061;-84
2023/04/08 10:31:50;;;;;;;22.85;18.90;;;8.60;99.90;;;;;;5000392;28;20038;-84
2023/04/08 10:34:26;;;;;;;24.10;18.75;;;8.60;99.90;;;;;;5000050;28;20092;-84
2023/04/08 10:36:54;;;;;;;23.63;18.67;;;8.80;99.90;;;;;;4999697;28;20046;-85
2023/04/08 10:39:21;;;;;;;21.88;18.60;;;8.70;99.90;;;;;;5016786;28;20054;-84
2023/04/08 10:41:49;;;;;;;22.63;18.48;;;8.90;99.90;;;;;;5014870;28;20042;-84
2023/04/08 10:44:18;;;;;;;24.35;19.33;;;8.90;99.90;;;;;;5016815;28;20062;-84
2023/04/08 10:46:48;;;;;;;23.08;18.77;;;8.90;99.90;;;;;;5016644;28;20056;-85
2023/04/08 10:49:18;;;;;;;25.02;19.10;;;8.90;99.90;;;;;;4984533;28;20132;-84
2023/04/08 10:51:45;;;;;;;22.67;17.48;;;8.90;99.90;;;;;;5016045;28;20045;-84
2023/04/08 10:54:16;;;;;;;30.05;22.35;;;9.00;99.90;;;;;;4999750;28;20046;-85
2023/04/08 10:56:53;;;;;;;27.73;21.75;;;9.00;99.90;;;;;;4999390;28;20057;-85
2023/04/08 10:59:30;;;;;;;30.15;22.65;;;8.80;99.90;;;;;;4983819;28;20038;-85
2023/04/08 11:01:57;;;;;;;24.52;20.25;;;8.80;99.90;;;;;;5000316;28;20402;-84
2023/04/08 11:04:23;;;;;;;27.20;21.90;;;8.70;99.90;;;;;;5015564;28;20056;-86
2023/04/08 11:06:50;;;;;;;28.40;22.17;;;8.80;99.90;;;;;;5015732;28;20050;-84
2023/04/08 11:09:16;;;;;;;29.58;23.48;;;8.90;99.90;;;;;;5014917;28;20050;-84
2023/04/08 11:11:44;;;;;;;24.55;19.55;;;9.00;99.90;;;;;;5015629;28;20100;-84
2023/04/08 11:14:10;;;;;;;27.38;21.38;;;9.00;99.90;;;;;;5015964;28;20081;-84
2023/04/08 11:16:47;;;;;;;28.75;21.52;;;9.20;99.90;;;;;;4999375;28;20041;-85
2023/04/08 11:19:14;;;;;;;34.20;26.58;;;9.20;99.90;;;;;;4983774;28;20046;-84
2023/04/08 11:21:40;;;;;;;24.85;18.80;;;9.10;99.90;;;;;;5002913;28;20071;-83
2023/04/08 11:24:13;;;;;;;49.70;42.05;;;9.20;99.90;;;;;;5018407;28;20045;-85
2023/04/08 11:26:40;;;;;;;49.35;41.13;;;9.30;99.90;;;;;;5035729;28;20164;-84
2023/04/08 11:29:12;;;;;;;26.17;21.25;;;9.30;99.90;;;;;;5035008;28;20387;-83
2023/04/08 11:31:42;;;;;;;50.38;42.40;;;9.30;99.90;;;;;;5035498;28;20044;-85
2023/04/08 11:34:08;;;;;;;43.63;38.20;;;9.40;99.90;;;;;;5034885;28;20114;-85
2023/04/08 11:36:40;;;;;;;35.75;30.27;;;9.40;99.90;;;;;;5034716;28;20048;-85
2023/04/08 11:39:08;;;;;;;28.98;23.17;;;9.40;99.90;;;;;;5035095;28;20045;-85
2023/04/08 11:41:40;;;;;;;27.77;22.10;;;9.30;99.90;;;;;;5034754;28;20057;-85
2023/04/08 11:44:06;;;;;;;26.42;16.83;;;9.30;99.90;;;;;;5035003;28;20044;-83
2023/04/08 11:46:36;;;;;;;27.70;22.52;;;8.60;99.90;;;;;;5034905;28;20045;-84
2023/04/08 11:49:05;;;;;;;29.65;21.58;;;9.30;99.90;;;;;;5034363;28;20068;-85
2023/04/08 11:51:33;;;;;;;24.50;19.80;;;9.10;99.90;;;;;;5034818;28;20077;-84
2023/04/08 11:53:59;;;;;;;24.77;19.52;;;9.20;99.90;;;;;;5034433;28;20081;-84
2023/04/08 11:56:25;;;;;;;29.70;23.90;;;9.00;99.90;;;;;;5017391;28;20096;-85
2023/04/08 11:58:52;;;;;;;28.05;22.23;;;9.00;99.90;;;;;;5034614;28;20045;-84
2023/04/08 12:01:19;;;;;;;26.10;19.05;;;9.10;99.90;;;;;;5017349;28;20456;-84
2023/04/08 12:04:05;;;;;;;25.70;19.25;;;9.20;99.90;;;;;;5034467;28;20049;-84
2023/04/08 12:06:31;;;;;;;26.55;19.75;;;9.30;99.90;;;;;;5018703;28;20132;-84
2023/04/08 12:08:57;;;;;;;29.38;22.45;;;9.30;99.90;;;;;;5017693;28;20418;-84
2023/04/08 12:11:23;;;;;;;28.77;22.73;;;9.20;99.90;;;;;;5034167;28;20049;-85
2023/04/08 12:13:49;;;;;;;30.83;23.25;;;9.40;99.90;;;;;;5018571;28;20041;-84
2023/04/08 12:16:16;;;;;;;27.10;20.17;;;9.30;99.90;;;;;;5001161;28;20045;-84
2023/04/08 12:18:41;;;;;;;29.35;22.05;;;9.40;99.90;;;;;;5017272;28;20057;-84
2023/04/08 12:21:07;;;;;;;27.80;20.95;;;9.40;99.90;;;;;;5017674;28;20116;-84
2023/04/08 12:23:33;;;;;;;27.63;21.70;;;9.40;99.90;;;;;;5017674;28;20041;-82
2023/04/08 12:25:59;;;;;;;29.23;22.50;;;9.50;99.90;;;;;;5017536;28;20056;-84
2023/04/08 12:28:33;;;;;;;30.80;23.33;;;9.50;99.90;;;;;;5017884;28;20053;-86
2023/04/08 12:30:59;;;;;;;29.05;21.85;;;9.50;99.90;;;;;;5017715;28;20056;-85
2023/04/08 12:33:27;;;;;;;35.92;26.85;;;9.50;99.90;;;;;;5033613;28;20049;-84
2023/04/08 12:35:53;;;;;;;34.00;25.58;;;9.40;99.90;;;;;;4984782;28;20050;-85
2023/04/08 12:38:19;;;;;;;33.03;23.65;;;9.40;99.90;;;;;;5033611;28;20053;-84
2023/04/08 12:40:45;;;;;;;34.22;24.92;;;9.50;99.90;;;;;;5033637;28;20057;-85